createdAt,value
2022-11-29T00:00:10.884Z,38.10
2022-11-29T00:02:39.524Z,36.67
2022-11-29T00:05:09.578Z,33.60
2022-11-29T00:07:38.334Z,31.23
2022-11-29T00:10:11.110Z,30.90
2022-11-29T00:12:39.854Z,29.38
2022-11-29T00:15:09.798Z,33.58
2022-11-29T00:17:38.375Z,29.02
2022-11-29T00:20:10.722Z,30.83
2022-11-29T00:22:39.891Z,30.70
2022-11-29T00:25:11.108Z,30.50
2022-11-29T00:27:39.744Z,31.45
2022-11-29T00:30:12.095Z,29.30
2022-11-29T00:32:40.713Z,28.48
2022-11-29T00:35:10.251Z,26.25
2022-11-29T00:37:39.147Z,28.23
2022-11-29T00:40:11.411Z,28.08
2022-11-29T00:42:40.015Z,29.20
2022-11-29T00:45:10.936Z,26.30
2022-11-29T00:47:39.585Z,25.95
2022-11-29T00:50:09.927Z,25.67
2022-11-29T00:52:38.545Z,26.83
2022-11-29T00:55:10.808Z,27.77
2022-11-29T00:57:39.372Z,26.27
2022-11-29T01:00:10.419Z,26.30
2022-11-29T01:02:39.201Z,25.40
2022-11-29T01:05:08.774Z,26.50
2022-11-29T01:07:37.415Z,27.08
2022-11-29T01:10:08.567Z,28.45
2022-11-29T01:12:40.809Z,26.95
2022-11-29T01:15:11.908Z,27.08
2022-11-29T01:17:42.184Z,25.73
2022-11-29T01:20:13.792Z,27.65
2022-11-29T01:22:43.265Z,24.73
2022-11-29T01:25:14.525Z,24.92
2022-11-29T01:27:45.080Z,27.20
2022-11-29T01:30:16.760Z,27.13
2022-11-29T01:32:45.353Z,26.15
2022-11-29T01:35:13.903Z,26.60
2022-11-29T01:37:42.584Z,27.95
2022-11-29T01:40:13.298Z,30.42
2022-11-29T01:42:43.806Z,30.05
2022-11-29T01:45:25.591Z,31.55
2022-11-29T01:47:58.416Z,34.08
2022-11-29T01:50:27.295Z,30.48
2022-11-29T01:52:55.926Z,34.53
2022-11-29T01:55:24.936Z,33.78
2022-11-29T01:57:55.829Z,37.13
2022-11-29T02:00:24.735Z,38.03
2022-11-29T02:02:58.780Z,38.30
2022-11-29T02:05:28.119Z,42.78
2022-11-29T02:08:00.519Z,50.47
2022-11-29T02:10:45.804Z,45.40
2022-11-29T02:13:29.762Z,46.90
2022-11-29T02:16:09.599Z,47.30
2022-11-29T02:18:52.083Z,45.38
2022-11-29T02:21:41.514Z,46.85
2022-11-29T02:24:34.900Z,51.13
2022-11-29T02:27:47.749Z,56.22
2022-11-29T02:30:48.157Z,56.47
2022-11-29T02:33:57.480Z,47.55
2022-11-29T02:37:11.390Z,45.85
2022-11-29T02:40:29.408Z,42.28
2022-11-29T02:43:43.654Z,37.40
2022-11-29T02:46:40.819Z,38.78
2022-11-29T02:49:24.117Z,39.20
2022-11-29T02:52:00.617Z,37.40
2022-11-29T02:54:38.687Z,42.58
2022-11-29T02:57:20.999Z,48.20
2022-11-29T03:00:00.106Z,40.28
2022-11-29T03:02:36.587Z,39.70
2022-11-29T03:05:20.551Z,39.95
2022-11-29T03:08:00.179Z,41.50
2022-11-29T03:10:40.239Z,39.05
2022-11-29T03:13:21.396Z,38.47
2022-11-29T03:15:59.638Z,39.20
2022-11-29T03:18:38.823Z,37.50
2022-11-29T03:21:20.687Z,40.67
2022-11-29T03:23:52.329Z,38.72
2022-11-29T03:26:28.071Z,37.97
2022-11-29T03:29:06.663Z,41.60
2022-11-29T03:31:41.337Z,40.22
2022-11-29T03:34:21.779Z,40.72
2022-11-29T03:36:59.695Z,36.75
2022-11-29T03:39:46.197Z,38.47
2022-11-29T03:42:23.801Z,36.30
2022-11-29T03:45:01.207Z,38.10
2022-11-29T03:47:36.666Z,36.00
2022-11-29T03:50:12.821Z,35.75
2022-11-29T03:52:50.923Z,35.75
2022-11-29T03:55:34.617Z,39.08
2022-11-29T03:58:31.550Z,36.67
2022-11-29T04:01:38.980Z,35.08
2022-11-29T04:04:37.979Z,44.75
2022-11-29T04:07:18.388Z,34.50
2022-11-29T04:10:14.620Z,35.80
2022-11-29T04:13:29.488Z,35.95
2022-11-29T04:16:25.372Z,36.38
2022-11-29T04:19:37.448Z,34.83
2022-11-29T04:23:00.300Z,34.45
2022-11-29T04:26:04.732Z,30.55
2022-11-29T04:29:07.130Z,36.28
2022-11-29T04:35:13.888Z,31.08
2022-11-29T04:38:24.129Z,36.83
2022-11-29T04:41:24.042Z,34.38
2022-11-29T04:44:27.782Z,32.72
2022-11-29T04:47:15.910Z,31.38
2022-11-29T04:50:09.482Z,30.08
2022-11-29T04:53:11.339Z,32.60
2022-11-29T04:55:50.931Z,29.85
2022-11-29T04:58:32.699Z,34.63
2022-11-29T05:01:09.050Z,31.77
2022-11-29T05:03:46.795Z,30.33
2022-11-29T05:06:26.791Z,33.50
2022-11-29T05:09:11.267Z,32.40
2022-11-29T05:11:58.668Z,31.08
2022-11-29T05:14:50.514Z,28.73
2022-11-29T05:17:43.811Z,33.55
2022-11-29T05:20:30.485Z,29.10
2022-11-29T05:23:19.497Z,30.90
2022-11-29T05:25:57.910Z,28.38
2022-11-29T05:28:35.067Z,31.15
2022-11-29T05:31:35.353Z,32.03
2022-11-29T05:34:46.140Z,29.13
2022-11-29T05:37:28.411Z,30.92
2022-11-29T05:40:30.411Z,28.25
2022-11-29T05:43:32.222Z,32.00
2022-11-29T05:46:12.106Z,30.73
2022-11-29T05:48:48.924Z,32.72
2022-11-29T05:51:23.566Z,32.08
2022-11-29T05:54:05.585Z,30.33
2022-11-29T05:59:19.979Z,26.25
2022-11-29T06:02:03.473Z,29.42
2022-11-29T06:04:56.612Z,31.63
2022-11-29T06:07:34.855Z,27.48
2022-11-29T06:10:08.104Z,27.63
2022-11-29T06:12:37.807Z,29.05
2022-11-29T06:16:04.716Z,26.45
2022-11-29T06:19:23.195Z,28.95
2022-11-29T06:22:05.183Z,29.63
2022-11-29T06:24:52.026Z,26.80
2022-11-29T06:27:42.280Z,27.40
2022-11-29T06:30:15.353Z,26.55
2022-11-29T06:32:53.775Z,28.15
2022-11-29T06:35:40.431Z,29.10
2022-11-29T06:38:18.583Z,31.17
2022-11-29T06:40:48.183Z,28.05
2022-11-29T06:43:18.612Z,28.08
2022-11-29T06:45:53.408Z,32.85
2022-11-29T06:48:27.096Z,29.95
2022-11-29T06:51:08.770Z,28.02
2022-11-29T06:53:49.911Z,28.42
2022-11-29T06:56:27.456Z,26.63
2022-11-29T06:59:08.429Z,26.85
2022-11-29T07:01:44.610Z,28.55
2022-11-29T07:04:46.360Z,25.33
2022-11-29T07:07:22.002Z,27.60
2022-11-29T07:09:56.398Z,24.67
2022-11-29T07:12:26.368Z,26.98
2022-11-29T07:14:56.211Z,28.30
2022-11-29T07:17:33.555Z,29.25
2022-11-29T07:20:11.792Z,27.15
2022-11-29T07:23:02.065Z,29.50
2022-11-29T07:25:44.926Z,25.98
2022-11-29T07:28:31.355Z,26.42
2022-11-29T07:31:11.118Z,22.58
2022-11-29T07:33:56.672Z,26.05
2022-11-29T07:36:38.701Z,26.23
2022-11-29T07:41:57.411Z,23.50
2022-11-29T07:44:35.193Z,21.77
2022-11-29T07:47:03.883Z,24.58
2022-11-29T07:49:32.601Z,24.42
2022-11-29T07:52:01.272Z,30.40
2022-11-29T07:54:32.377Z,23.33
2022-11-29T07:57:01.066Z,22.83
2022-11-29T07:59:29.753Z,24.85
2022-11-29T08:01:58.700Z,25.95
2022-11-29T08:04:27.619Z,22.48
2022-11-29T08:06:59.029Z,21.95
2022-11-29T08:09:27.966Z,21.42
2022-11-29T08:11:58.509Z,22.98
2022-11-29T08:14:27.387Z,22.67
2022-11-29T08:16:56.042Z,25.05
2022-11-29T08:19:24.671Z,18.92
2022-11-29T08:21:53.343Z,24.88
2022-11-29T08:24:22.143Z,18.80
2022-11-29T08:26:50.949Z,22.13
2022-11-29T08:29:21.980Z,21.30
2022-11-29T08:31:53.852Z,21.30
2022-11-29T08:36:51.673Z,18.08
2022-11-29T08:39:20.342Z,21.70
2022-11-29T08:41:50.244Z,19.08
2022-11-29T08:44:20.864Z,18.80
2022-11-29T08:47:02.619Z,21.75
2022-11-29T08:49:31.268Z,17.40
2022-11-29T08:52:12.995Z,18.02
2022-11-29T08:54:41.678Z,18.23
2022-11-29T08:57:38.519Z,17.98
2022-11-29T09:00:01.054Z,20.25
2022-11-29T09:02:29.807Z,19.35
2022-11-29T09:04:58.555Z,18.98
2022-11-29T09:07:27.315Z,17.52
2022-11-29T09:09:55.935Z,17.98
2022-11-29T09:12:24.609Z,19.52
2022-11-29T09:14:53.239Z,19.65
2022-11-29T09:17:23.851Z,18.75
2022-11-29T09:19:52.524Z,20.33
2022-11-29T09:22:21.229Z,17.88
2022-11-29T09:24:49.870Z,17.58
2022-11-29T09:27:18.544Z,17.92
2022-11-29T09:29:47.120Z,24.90
2022-11-29T09:32:16.000Z,21.15
2022-11-29T09:34:46.903Z,19.90
2022-11-29T09:37:15.734Z,16.63
2022-11-29T09:39:44.373Z,17.60
2022-11-29T09:42:38.472Z,17.85
2022-11-29T09:45:12.168Z,16.05
2022-11-29T09:48:30.429Z,16.15
2022-11-29T09:51:14.916Z,16.50
2022-11-29T09:54:02.381Z,18.52
2022-11-29T09:56:38.775Z,17.85
2022-11-29T09:59:14.921Z,19.10
2022-11-29T10:01:49.613Z,20.45
2022-11-29T10:04:23.038Z,19.77
2022-11-29T10:07:02.530Z,20.50
2022-11-29T10:09:37.755Z,20.17
2022-11-29T10:12:16.337Z,19.27
2022-11-29T10:14:52.396Z,19.65
2022-11-29T10:17:34.156Z,20.67
2022-11-29T10:20:12.379Z,20.45
2022-11-29T10:22:52.828Z,21.23
2022-11-29T10:25:26.916Z,19.73
2022-11-29T10:27:56.049Z,18.02
2022-11-29T10:30:25.073Z,19.00
2022-11-29T10:32:59.502Z,17.92
2022-11-29T10:35:28.892Z,24.45
2022-11-29T10:40:59.028Z,17.55
2022-11-29T10:43:28.277Z,18.80
2022-11-29T10:45:58.114Z,18.45
2022-11-29T10:48:31.881Z,19.65
2022-11-29T10:51:01.514Z,20.77
2022-11-29T10:53:37.411Z,20.33
2022-11-29T10:56:10.190Z,21.63
2022-11-29T10:58:54.178Z,22.33
2022-11-29T11:01:23.542Z,20.02
2022-11-29T11:03:54.942Z,19.33
2022-11-29T11:06:26.995Z,18.20
2022-11-29T11:09:13.809Z,19.90
2022-11-29T11:11:44.775Z,21.55
2022-11-29T11:14:23.084Z,22.50
2022-11-29T11:16:52.129Z,21.88
2022-11-29T11:19:30.848Z,21.38
2022-11-29T11:22:01.807Z,22.85
2022-11-29T11:24:34.862Z,22.50
2022-11-29T11:27:03.893Z,21.98
2022-11-29T11:29:38.945Z,22.55
2022-11-29T11:32:18.248Z,19.67
2022-11-29T11:34:54.108Z,23.02
2022-11-29T11:37:26.464Z,21.75
2022-11-29T11:39:59.356Z,20.98
2022-11-29T11:42:42.099Z,20.50
2022-11-29T11:45:33.407Z,20.00
2022-11-29T11:48:07.074Z,21.13
2022-11-29T11:50:42.432Z,21.40
2022-11-29T11:53:23.711Z,21.33
2022-11-29T11:56:07.400Z,20.92
2022-11-29T11:58:39.508Z,18.65
2022-11-29T12:01:24.602Z,19.27
2022-11-29T12:04:03.149Z,20.08
2022-11-29T12:06:46.625Z,20.90
2022-11-29T12:09:28.874Z,18.70
2022-11-29T12:12:12.552Z,19.77
2022-11-29T12:14:53.882Z,18.58
2022-11-29T12:17:33.123Z,18.27
2022-11-29T12:20:21.633Z,18.02
2022-11-29T12:23:15.069Z,18.33
2022-11-29T12:25:50.783Z,20.52
2022-11-29T12:28:23.743Z,20.65
2022-11-29T12:31:04.688Z,20.25
2022-11-29T12:33:43.956Z,18.77
2022-11-29T12:36:31.986Z,17.63
2022-11-29T12:39:22.719Z,19.48
2022-11-29T12:42:00.332Z,19.40
2022-11-29T12:44:53.689Z,18.42
2022-11-29T12:47:38.698Z,18.60
2022-11-29T12:50:27.424Z,18.55
2022-11-29T12:53:13.345Z,18.65
2022-11-29T12:55:54.702Z,19.52
2022-11-29T12:58:35.866Z,20.38
2022-11-29T13:01:16.901Z,21.70
2022-11-29T13:03:58.437Z,22.00
2022-11-29T13:06:35.811Z,21.30
2022-11-29T13:09:50.414Z,22.00
2022-11-29T13:12:27.178Z,21.85
2022-11-29T13:15:04.445Z,22.58
2022-11-29T13:17:42.752Z,23.10
2022-11-29T13:20:32.059Z,22.92
2022-11-29T13:23:15.244Z,22.75
2022-11-29T13:25:47.102Z,23.48
2022-11-29T13:30:52.345Z,21.70
2022-11-29T13:33:29.499Z,22.45
2022-11-29T13:36:09.691Z,22.40
2022-11-29T13:38:46.461Z,22.90
2022-11-29T13:41:28.776Z,23.00
2022-11-29T13:44:09.147Z,23.35
2022-11-29T13:46:47.389Z,21.77
2022-11-29T13:49:53.151Z,22.50
2022-11-29T13:52:41.097Z,22.45
2022-11-29T13:55:31.038Z,22.58
2022-11-29T13:58:16.728Z,23.33
2022-11-29T14:04:41.011Z,21.38
2022-11-29T14:07:13.520Z,22.20
2022-11-29T14:09:52.582Z,20.48
2022-11-29T14:12:37.695Z,20.98
2022-11-29T14:15:27.669Z,21.48
2022-11-29T14:17:59.252Z,25.33
2022-11-29T14:21:01.032Z,21.90
2022-11-29T14:23:42.008Z,21.10
2022-11-29T14:26:29.882Z,20.10
2022-11-29T14:28:59.923Z,20.85
2022-11-29T14:31:58.634Z,20.63
2022-11-29T14:34:48.758Z,18.50
2022-11-29T14:37:45.246Z,19.92
2022-11-29T14:40:27.496Z,20.55
2022-11-29T14:42:56.416Z,20.83
2022-11-29T14:45:29.502Z,20.70
2022-11-29T14:47:58.895Z,21.42
2022-11-29T14:50:34.721Z,19.95
2022-11-29T14:53:06.339Z,21.48
2022-11-29T14:55:38.323Z,24.50
2022-11-29T14:58:22.998Z,24.02
2022-11-29T15:01:09.725Z,24.33
2022-11-29T15:03:48.140Z,24.45
2022-11-29T15:06:28.351Z,21.73
2022-11-29T15:09:05.213Z,22.13
2022-11-29T15:11:46.615Z,22.33
2022-11-29T15:14:25.259Z,20.85
2022-11-29T15:17:19.019Z,22.25
2022-11-29T15:20:22.623Z,24.27
2022-11-29T15:22:54.156Z,24.63
2022-11-29T15:25:27.799Z,25.08
2022-11-29T15:27:58.809Z,25.15
2022-11-29T15:30:38.484Z,25.83
2022-11-29T15:33:09.524Z,27.23
2022-11-29T15:35:38.727Z,29.83
2022-11-29T15:38:07.325Z,28.83
2022-11-29T15:40:44.389Z,29.55
2022-11-29T15:43:21.852Z,28.98
2022-11-29T15:45:52.015Z,32.17
2022-11-29T15:48:24.295Z,32.65
2022-11-29T15:51:06.034Z,30.73
2022-11-29T15:53:41.088Z,33.50
2022-11-29T15:56:18.387Z,33.42
2022-11-29T15:58:49.442Z,32.08
2022-11-29T16:01:22.818Z,32.70
2022-11-29T16:03:56.053Z,28.42
2022-11-29T16:06:33.081Z,34.95
2022-11-29T16:09:03.514Z,29.65
2022-11-29T16:11:34.199Z,28.27
2022-11-29T16:14:16.019Z,29.05
2022-11-29T16:16:47.528Z,26.08
2022-11-29T16:19:30.807Z,28.80
2022-11-29T16:22:16.743Z,27.55
2022-11-29T16:25:00.380Z,25.50
2022-11-29T16:27:35.396Z,30.90
2022-11-29T16:30:05.509Z,32.45
2022-11-29T16:32:37.395Z,25.05
2022-11-29T16:37:41.416Z,27.70
2022-11-29T16:40:24.070Z,24.00
2022-11-29T16:43:23.204Z,27.13
2022-11-29T16:46:35.535Z,24.13
2022-11-29T16:49:36.755Z,21.52
2022-11-29T16:52:24.803Z,23.85
2022-11-29T16:54:53.439Z,21.20
2022-11-29T16:57:22.794Z,20.88
2022-11-29T16:59:53.520Z,20.55
2022-11-29T17:02:22.176Z,20.08
2022-11-29T17:04:52.756Z,20.25
2022-11-29T17:07:28.178Z,22.52
2022-11-29T17:09:57.728Z,22.13
2022-11-29T17:12:26.393Z,20.80
2022-11-29T17:14:56.874Z,21.25
2022-11-29T17:17:25.539Z,20.60
2022-11-29T17:19:54.447Z,17.85
2022-11-29T17:22:23.089Z,17.92
2022-11-29T17:24:52.119Z,19.45
2022-11-29T17:27:20.901Z,17.75
2022-11-29T17:29:49.563Z,17.10
2022-11-29T17:32:27.059Z,16.90
2022-11-29T17:34:55.874Z,15.93
2022-11-29T17:37:24.442Z,17.40
2022-11-29T17:39:53.098Z,18.38
2022-11-29T17:42:21.886Z,17.70
2022-11-29T17:44:50.486Z,17.17
2022-11-29T17:47:21.056Z,18.73
2022-11-29T17:49:49.721Z,17.90
2022-11-29T17:52:18.343Z,18.75
2022-11-29T17:54:46.992Z,18.65
2022-11-29T17:57:15.752Z,18.27
2022-11-29T17:59:44.462Z,18.40
2022-11-29T18:02:14.323Z,16.45
2022-11-29T18:04:44.879Z,19.55
2022-11-29T18:07:16.494Z,15.90
2022-11-29T18:09:46.249Z,15.05
2022-11-29T18:12:15.029Z,15.10
2022-11-29T18:14:43.654Z,16.40
2022-11-29T18:17:12.452Z,15.20
2022-11-29T18:19:41.596Z,15.25
2022-11-29T18:22:12.075Z,15.32
2022-11-29T18:24:43.504Z,15.25
2022-11-29T18:27:12.104Z,15.75
2022-11-29T18:29:40.773Z,16.20
2022-11-29T18:32:09.380Z,15.80
2022-11-29T18:34:37.968Z,14.80
2022-11-29T18:37:09.889Z,14.02
2022-11-29T18:39:44.762Z,15.77
2022-11-29T18:42:13.432Z,14.68
2022-11-29T18:44:42.003Z,17.55
2022-11-29T18:47:10.585Z,16.35
2022-11-29T18:49:39.159Z,15.48
2022-11-29T18:52:07.796Z,13.80
2022-11-29T18:54:36.396Z,15.13
2022-11-29T18:57:06.964Z,14.20
2022-11-29T18:59:35.603Z,14.43
2022-11-29T19:02:04.263Z,14.05
2022-11-29T19:04:32.898Z,14.75
2022-11-29T19:07:01.497Z,13.85
2022-11-29T19:09:30.087Z,14.77
2022-11-29T19:11:58.700Z,15.25
2022-11-29T19:14:29.895Z,14.70
2022-11-29T19:16:58.532Z,14.73
2022-11-29T19:19:27.707Z,14.15
2022-11-29T19:21:56.525Z,14.70
2022-11-29T19:24:25.219Z,15.60
2022-11-29T19:26:55.184Z,17.05
2022-11-29T19:29:23.840Z,14.18
2022-11-29T19:31:54.548Z,13.25
2022-11-29T19:34:23.200Z,14.38
2022-11-29T19:36:51.968Z,14.05
2022-11-29T19:41:46.494Z,14.70
2022-11-29T19:44:15.839Z,13.50
2022-11-29T19:46:47.970Z,14.30
2022-11-29T19:49:16.862Z,15.38
2022-11-29T19:51:45.798Z,15.30
2022-11-29T19:54:15.068Z,15.43
2022-11-29T19:56:45.624Z,15.48
2022-11-29T19:59:14.427Z,14.80
2022-11-29T20:01:43.385Z,14.90
2022-11-29T20:04:16.092Z,13.63
2022-11-29T20:06:45.732Z,14.20
2022-11-29T20:09:15.193Z,14.02
2022-11-29T20:11:45.799Z,14.30
2022-11-29T20:14:14.932Z,13.55
2022-11-29T20:16:44.039Z,13.40
2022-11-29T20:19:16.226Z,13.52
2022-11-29T20:21:48.112Z,13.68
2022-11-29T20:26:50.069Z,14.88
2022-11-29T20:29:21.245Z,15.13
2022-11-29T20:31:51.255Z,15.55
2022-11-29T20:34:21.533Z,15.38
2022-11-29T20:37:26.624Z,15.82
2022-11-29T20:40:01.268Z,15.57
2022-11-29T20:43:11.747Z,16.60
2022-11-29T20:45:41.242Z,16.33
2022-11-29T20:48:19.011Z,16.40
2022-11-29T20:50:55.204Z,16.33
2022-11-29T20:53:34.909Z,17.10
2022-11-29T20:56:04.102Z,17.63
2022-11-29T20:58:35.155Z,16.88
2022-11-29T21:01:05.430Z,17.70
2022-11-29T21:03:34.142Z,17.02
2022-11-29T21:06:05.046Z,17.13
2022-11-29T21:08:34.388Z,16.60
2022-11-29T21:11:08.403Z,18.50
2022-11-29T21:13:40.295Z,17.23
2022-11-29T21:18:41.328Z,17.58
2022-11-29T21:21:24.473Z,17.85
2022-11-29T21:24:07.737Z,18.05
2022-11-29T21:26:43.207Z,18.00
2022-11-29T21:29:20.426Z,19.48
2022-11-29T21:31:52.140Z,20.35
2022-11-29T21:34:21.005Z,20.50
2022-11-29T21:36:55.987Z,21.63
2022-11-29T21:39:34.959Z,20.98
2022-11-29T21:42:04.200Z,18.55
2022-11-29T21:44:34.714Z,20.65
2022-11-29T21:47:03.327Z,20.30
2022-11-29T21:49:34.381Z,19.80
2022-11-29T21:52:03.194Z,18.83
2022-11-29T21:54:31.815Z,20.45
2022-11-29T21:57:01.153Z,19.33
2022-11-29T21:59:29.778Z,19.55
2022-11-29T22:02:00.452Z,22.50
2022-11-29T22:04:29.504Z,27.08
2022-11-29T22:07:05.895Z,27.40
2022-11-29T22:09:34.510Z,32.42
2022-11-29T22:12:25.809Z,32.97
2022-11-29T22:14:52.221Z,32.55
2022-11-29T22:17:35.015Z,34.75
2022-11-29T22:20:03.597Z,34.65
2022-11-29T22:22:32.204Z,37.55
2022-11-29T22:25:00.866Z,35.05
2022-11-29T22:27:29.418Z,33.83
2022-11-29T22:29:58.048Z,31.92
2022-11-29T22:32:28.536Z,31.85
2022-11-29T22:34:57.143Z,31.25
2022-11-29T22:37:25.788Z,28.00
2022-11-29T22:39:54.435Z,28.17
2022-11-29T22:42:23.069Z,27.42
2022-11-29T22:44:51.642Z,29.77
2022-11-29T22:47:20.218Z,31.33
2022-11-29T22:49:50.804Z,30.00
2022-11-29T22:52:21.005Z,29.65
2022-11-29T22:54:49.779Z,29.38
2022-11-29T22:57:18.454Z,26.98
2022-11-29T22:59:47.082Z,26.85
2022-11-29T23:02:15.727Z,25.23
2022-11-29T23:04:44.436Z,26.02
2022-11-29T23:07:14.998Z,24.42
2022-11-29T23:09:43.593Z,24.67
2022-11-29T23:12:12.198Z,24.08
2022-11-29T23:14:40.775Z,24.73
2022-11-29T23:17:09.327Z,23.85
2022-11-29T23:19:37.932Z,22.58
2022-11-29T23:22:06.522Z,22.77
2022-11-29T23:24:38.413Z,22.75
2022-11-29T23:29:35.381Z,21.83
2022-11-29T23:32:04.053Z,22.35
2022-11-29T23:34:32.659Z,22.50
2022-11-29T23:37:01.272Z,22.48
2022-11-29T23:39:29.846Z,21.88
2022-11-29T23:42:00.380Z,23.13
2022-11-29T23:44:28.932Z,22.67
2022-11-29T23:46:57.580Z,23.83
2022-11-29T23:49:26.332Z,22.85
2022-11-29T23:51:54.895Z,22.73
2022-11-29T23:54:24.410Z,23.10
2022-11-29T23:56:53.042Z,22.75
2022-11-29T23:59:23.557Z,23.33
